createdAt,value
2016-11-19T00:10:18.072Z,132.4
2016-11-19T00:21:17.013Z,132.4
2016-11-19T00:32:17.491Z,132
2016-11-19T00:43:16.969Z,132.4
2016-11-19T00:54:17.032Z,132.2
2016-11-19T01:05:16.957Z,131.5
2016-11-19T01:16:17.083Z,131.7
2016-11-19T01:27:16.774Z,131.5
2016-11-19T01:38:16.622Z,131.5
2016-11-19T01:49:17.110Z,129.9
2016-11-19T02:00:17.727Z,128.3
2016-11-19T02:11:17.364Z,127.6
2016-11-19T02:22:17.543Z,127.3
2016-11-19T02:33:17.516Z,127.6
2016-11-19T02:44:17.409Z,128.6
2016-11-19T02:55:17.874Z,129.2
2016-11-19T03:06:17.338Z,129.3
2016-11-19T03:17:17.513Z,129.6
2016-11-19T03:28:17.220Z,129.7
2016-11-19T03:39:17.362Z,129.6
2016-11-19T03:50:17.643Z,129.6
2016-11-19T04:01:16.798Z,129.6
2016-11-19T04:12:16.877Z,129.1
2016-11-19T04:23:16.950Z,129
2016-11-19T04:34:17.845Z,129.1
2016-11-19T04:45:17.104Z,129.2
2016-11-19T04:56:16.958Z,125.7
2016-11-19T05:07:17.362Z,124.1
2016-11-19T05:18:16.821Z,122.9
2016-11-19T05:29:17.305Z,122.1
2016-11-19T05:40:18.039Z,122.1
2016-11-19T05:51:17.463Z,122.9
2016-11-19T06:02:16.921Z,123.2
2016-11-19T06:13:17.818Z,123.3
2016-11-19T06:24:17.073Z,124
2016-11-19T06:35:17.151Z,123.8
2016-11-19T06:46:17.022Z,124.1
2016-11-19T06:57:17.509Z,123.6
2016-11-19T07:08:17.376Z,123.8
2016-11-19T07:19:16.941Z,123.3
2016-11-19T07:30:17.833Z,123.4
2016-11-19T07:41:17.301Z,123.7
2016-11-19T07:52:17.584Z,121.9
2016-11-19T08:03:17.047Z,120.1
2016-11-19T08:14:17.737Z,118.9
2016-11-19T08:25:17.405Z,118.4
2016-11-19T08:36:17.071Z,118.4
2016-11-19T08:47:16.946Z,118.9
2016-11-19T08:58:17.432Z,118.3
2016-11-19T09:09:17.304Z,118.3
2016-11-19T09:20:17.789Z,118.4
2016-11-19T09:31:16.841Z,118
2016-11-19T09:42:18.045Z,117.6
2016-11-19T09:53:17.097Z,117.4
2016-11-19T10:04:17.170Z,117.4
2016-11-19T10:15:18.113Z,117.2
2016-11-19T10:26:17.119Z,117.1
2016-11-19T10:37:17.603Z,116.7
2016-11-19T10:48:17.885Z,116.6
2016-11-19T10:59:17.707Z,116.2
2016-11-19T11:10:17.829Z,115.8
2016-11-19T11:21:17.907Z,114.5
2016-11-19T11:32:16.749Z,115
2016-11-19T11:43:16.827Z,114.6
2016-11-19T11:54:16.916Z,114.4
2016-11-19T12:05:17.712Z,114.1
2016-11-19T12:16:17.265Z,113.6
2016-11-19T12:27:17.550Z,113.4
2016-11-19T12:38:17.922Z,113.3
2016-11-19T12:49:16.911Z,110.8
2016-11-19T13:00:17.362Z,109.4
2016-11-19T13:11:17.639Z,107.7
2016-11-19T13:22:17.288Z,107.1
2016-11-19T13:33:17.277Z,107.8
2016-11-19T13:44:17.840Z,108.2
2016-11-19T13:55:17.675Z,108.3
2016-11-19T14:06:16.699Z,108.2
2016-11-19T14:17:17.342Z,107.9
2016-11-19T14:28:16.826Z,108
2016-11-19T14:39:16.784Z,108.4
2016-11-19T14:50:17.426Z,107.9
2016-11-19T15:01:16.820Z,107.5
2016-11-19T15:12:17.272Z,107.6
2016-11-19T15:23:16.559Z,107
2016-11-19T15:34:16.719Z,106.4
2016-11-19T15:45:16.825Z,106
2016-11-19T15:56:16.765Z,105.8
2016-11-19T16:07:17.215Z,105.6
2016-11-19T16:18:16.672Z,105.9
2016-11-19T16:29:16.888Z,105.1
2016-11-19T16:40:16.849Z,104.8
2016-11-19T16:51:16.729Z,104.1
2016-11-19T17:02:16.995Z,103.7
2016-11-19T17:13:17.283Z,99.6
2016-11-19T17:24:16.956Z,97.6
2016-11-19T17:35:17.152Z,98.5
2016-11-19T17:46:17.191Z,97.9
2016-11-19T17:57:17.354Z,97.6
2016-11-19T18:08:16.771Z,97.8
2016-11-19T18:19:16.869Z,97.6
2016-11-19T18:30:17.138Z,96.9
2016-11-19T18:41:16.734Z,97.4
2016-11-19T18:52:17.442Z,97.3
2016-11-19T19:03:16.431Z,97.2
2016-11-19T19:14:17.308Z,97.6
2016-11-19T19:25:17.517Z,97.2
2016-11-19T19:36:16.572Z,96.7
2016-11-19T19:47:16.804Z,96.4
2016-11-19T19:58:16.665Z,96.2
2016-11-19T20:09:17.639Z,96
2016-11-19T20:20:17.371Z,96.2
2016-11-19T20:31:16.466Z,96
2016-11-19T20:42:17.564Z,95.9
2016-11-19T20:53:16.630Z,95.9
2016-11-19T21:04:17.373Z,95.6
2016-11-19T21:15:16.774Z,95.4
2016-11-19T21:26:17.709Z,95.3
2016-11-19T21:37:17.085Z,95.1
2016-11-19T21:48:17.592Z,95
2016-11-19T21:59:16.541Z,96.5
2016-11-19T22:10:17.766Z,94.2
2016-11-19T22:21:17.770Z,94.2
2016-11-19T22:32:16.721Z,94
2016-11-19T22:43:17.473Z,93
2016-11-19T22:54:16.739Z,92.8
2016-11-19T23:05:16.994Z,92.4
2016-11-19T23:16:17.347Z,92.5
2016-11-19T23:27:16.899Z,88
2016-11-19T23:38:17.035Z,86.8
2016-11-19T23:49:17.293Z,85.3
